createdAt,value
2019-01-13T00:01:37.860Z,1.50
2019-01-13T00:04:07.208Z,1.50
2019-01-13T00:06:36.444Z,1.50
2019-01-13T00:09:08.110Z,1.50
2019-01-13T00:11:37.404Z,1.50
2019-01-13T00:14:06.708Z,1.50
2019-01-13T00:16:35.986Z,1.60
2019-01-13T00:19:05.222Z,1.50
2019-01-13T00:21:34.443Z,1.50
2019-01-13T00:24:03.674Z,1.50
2019-01-13T00:26:32.860Z,1.50
2019-01-13T00:29:01.988Z,1.50
2019-01-13T00:31:31.211Z,1.50
2019-01-13T00:34:00.458Z,1.50
2019-01-13T00:36:29.718Z,1.50
2019-01-13T00:38:58.983Z,1.50
2019-01-13T00:41:28.193Z,1.50
2019-01-13T00:43:57.515Z,1.50
2019-01-13T00:46:26.719Z,1.50
2019-01-13T00:48:55.957Z,1.50
2019-01-13T00:51:25.110Z,1.50
2019-01-13T00:53:54.303Z,1.40
2019-01-13T00:56:23.519Z,1.50
2019-01-13T00:58:52.697Z,1.50
2019-01-13T01:01:21.880Z,1.50
2019-01-13T01:03:51.380Z,1.60
2019-01-13T01:06:20.578Z,1.60
2019-01-13T01:08:49.901Z,1.60
2019-01-13T01:11:20.913Z,1.60
2019-01-13T01:13:50.046Z,1.60
2019-01-13T01:16:19.305Z,1.60
2019-01-13T01:18:48.511Z,1.60
2019-01-13T01:21:17.691Z,1.60
2019-01-13T01:23:46.874Z,1.60
2019-01-13T01:26:16.056Z,1.70
2019-01-13T01:28:45.235Z,1.70
2019-01-13T01:31:16.745Z,1.70
2019-01-13T01:33:45.917Z,1.70
2019-01-13T01:36:15.123Z,1.70
2019-01-13T01:38:44.454Z,1.60
2019-01-13T01:41:13.730Z,1.70
2019-01-13T01:43:43.083Z,1.60
2019-01-13T01:46:12.278Z,1.60
2019-01-13T01:48:41.497Z,1.60
2019-01-13T01:51:10.726Z,1.60
2019-01-13T01:53:39.988Z,1.60
2019-01-13T01:56:09.315Z,1.60
2019-01-13T01:58:38.654Z,1.60
2019-01-13T02:01:07.838Z,1.50
2019-01-13T02:03:37.066Z,1.50
2019-01-13T02:06:06.369Z,1.50
2019-01-13T02:08:35.538Z,1.50
2019-01-13T02:11:04.701Z,1.60
2019-01-13T02:13:33.958Z,1.50
2019-01-13T02:16:03.234Z,1.50
2019-01-13T02:18:32.422Z,1.50
2019-01-13T02:21:01.662Z,1.40
2019-01-13T02:23:30.798Z,1.40
2019-01-13T02:26:00.072Z,1.40
2019-01-13T02:28:29.196Z,1.40
2019-01-13T02:30:58.492Z,1.50
2019-01-13T02:33:27.636Z,1.50
2019-01-13T02:35:56.837Z,1.40
2019-01-13T02:38:26.082Z,1.40
2019-01-13T02:40:55.328Z,1.40
2019-01-13T02:43:24.486Z,1.30
2019-01-13T02:45:53.648Z,1.40
2019-01-13T02:48:22.797Z,1.30
2019-01-13T02:50:52.022Z,1.20
2019-01-13T02:53:21.206Z,1.20
2019-01-13T02:55:50.382Z,1.10
2019-01-13T02:58:19.622Z,1.10
2019-01-13T03:00:56.750Z,1.10
2019-01-13T03:03:19.691Z,1.10
2019-01-13T03:05:48.916Z,1.00
2019-01-13T03:08:18.128Z,1.10
2019-01-13T03:10:47.298Z,1.10
2019-01-13T03:13:16.519Z,1.00
2019-01-13T03:15:45.646Z,1.00
2019-01-13T03:18:14.779Z,1.10
2019-01-13T03:20:44.014Z,1.40
2019-01-13T03:23:13.162Z,1.30
2019-01-13T03:25:42.313Z,1.20
2019-01-13T03:28:11.474Z,1.10
2019-01-13T03:30:40.748Z,1.10
2019-01-13T03:33:09.988Z,1.10
2019-01-13T03:35:39.161Z,1.10
2019-01-13T03:38:08.302Z,1.00
2019-01-13T03:40:37.966Z,1.00
2019-01-13T03:43:07.354Z,1.00
2019-01-13T03:45:36.639Z,1.00
2019-01-13T03:48:05.873Z,1.00
2019-01-13T03:50:35.029Z,1.00
2019-01-13T03:53:04.291Z,1.10
2019-01-13T03:55:33.589Z,1.10
2019-01-13T03:58:02.770Z,1.10
2019-01-13T04:00:31.979Z,1.10
2019-01-13T04:03:01.192Z,1.20
2019-01-13T04:05:30.429Z,1.20
2019-01-13T04:07:59.666Z,1.30
2019-01-13T04:10:28.910Z,1.30
2019-01-13T04:12:58.048Z,1.40
2019-01-13T04:16:02.360Z,1.40
2019-01-13T04:18:31.486Z,1.50
2019-01-13T04:21:00.676Z,1.60
2019-01-13T04:23:29.875Z,1.70
2019-01-13T04:25:59.063Z,1.70
2019-01-13T04:28:28.211Z,1.80
2019-01-13T04:30:57.382Z,1.80
2019-01-13T04:33:26.523Z,1.90
2019-01-13T04:35:55.763Z,1.90
2019-01-13T04:38:24.919Z,1.90
2019-01-13T04:40:54.066Z,1.90
2019-01-13T04:43:23.290Z,1.90
2019-01-13T04:45:52.570Z,1.90
2019-01-13T04:48:21.780Z,1.90
2019-01-13T04:50:50.996Z,1.90
2019-01-13T04:53:20.129Z,1.90
2019-01-13T04:55:49.294Z,2.00
2019-01-13T04:58:18.554Z,1.90
2019-01-13T05:00:47.869Z,1.90
2019-01-13T05:03:17.054Z,1.90
2019-01-13T05:05:46.273Z,1.90
2019-01-13T05:08:15.540Z,1.80
2019-01-13T05:10:44.820Z,1.80
2019-01-13T05:13:14.006Z,1.80
2019-01-13T05:15:43.163Z,1.80
2019-01-13T05:18:12.333Z,1.70
2019-01-13T05:20:41.598Z,1.70
2019-01-13T05:23:10.881Z,1.70
2019-01-13T05:25:40.214Z,1.70
2019-01-13T05:28:09.401Z,1.70
2019-01-13T05:30:38.620Z,1.70
2019-01-13T05:33:07.859Z,1.70
2019-01-13T05:35:37.022Z,1.70
2019-01-13T05:38:06.274Z,1.70
2019-01-13T05:40:35.459Z,1.70
2019-01-13T05:43:04.694Z,1.70
2019-01-13T05:45:34.052Z,1.80
2019-01-13T05:48:03.246Z,1.80
2019-01-13T05:50:32.524Z,1.80
2019-01-13T05:53:02.064Z,1.90
2019-01-13T05:55:31.452Z,1.80
2019-01-13T05:58:00.634Z,1.80
2019-01-13T06:00:34.168Z,1.90
2019-01-13T06:03:03.347Z,1.90
2019-01-13T06:05:32.490Z,2.00
2019-01-13T06:08:01.738Z,2.00
2019-01-13T06:10:31.038Z,2.00
2019-01-13T06:13:00.230Z,2.00
2019-01-13T06:15:29.468Z,2.00
2019-01-13T06:17:58.644Z,2.00
2019-01-13T06:20:27.766Z,2.00
2019-01-13T06:22:57.011Z,2.00
2019-01-13T06:25:26.263Z,2.00
2019-01-13T06:27:55.442Z,2.00
2019-01-13T06:30:25.015Z,2.10
2019-01-13T06:32:54.279Z,2.10
2019-01-13T06:35:23.584Z,2.10
2019-01-13T06:37:52.716Z,2.10
2019-01-13T06:40:22.598Z,2.10
2019-01-13T06:42:51.886Z,2.10
2019-01-13T06:45:25.734Z,2.10
2019-01-13T06:47:55.018Z,2.10
2019-01-13T06:50:24.261Z,2.10
2019-01-13T06:52:53.506Z,2.10
2019-01-13T06:55:22.669Z,2.20
2019-01-13T06:57:51.856Z,2.20
2019-01-13T07:00:25.864Z,2.20
2019-01-13T07:02:55.108Z,2.20
2019-01-13T07:05:24.469Z,2.20
2019-01-13T07:07:53.657Z,2.20
2019-01-13T07:10:22.861Z,2.20
2019-01-13T07:12:52.024Z,2.30
2019-01-13T07:15:21.778Z,2.30
2019-01-13T07:17:50.995Z,2.30
2019-01-13T07:20:21.534Z,2.30
2019-01-13T07:22:51.011Z,2.30
2019-01-13T07:25:20.309Z,2.30
2019-01-13T07:27:49.574Z,2.40
2019-01-13T07:30:22.166Z,2.40
2019-01-13T07:32:51.616Z,2.40
2019-01-13T07:35:21.129Z,2.40
2019-01-13T07:37:50.277Z,2.40
2019-01-13T07:40:21.283Z,2.50
2019-01-13T07:42:50.510Z,2.50
2019-01-13T07:45:27.232Z,2.50
2019-01-13T07:47:56.466Z,2.50
2019-01-13T07:50:25.681Z,2.50
2019-01-13T07:52:54.927Z,2.60
2019-01-13T07:55:24.727Z,2.60
2019-01-13T07:57:54.117Z,2.60
2019-01-13T08:00:26.284Z,2.60
2019-01-13T08:02:55.510Z,2.60
2019-01-13T08:05:24.760Z,2.50
2019-01-13T08:07:53.919Z,2.60
2019-01-13T08:10:23.114Z,2.60
2019-01-13T08:12:52.278Z,2.60
2019-01-13T08:15:21.776Z,2.60
2019-01-13T08:17:50.940Z,2.60
2019-01-13T08:20:25.658Z,2.60
2019-01-13T08:22:55.001Z,2.60
2019-01-13T08:25:24.388Z,2.60
2019-01-13T08:27:53.723Z,2.60
2019-01-13T08:30:23.239Z,2.60
2019-01-13T08:32:52.760Z,2.60
2019-01-13T08:35:21.939Z,2.60
2019-01-13T08:37:51.159Z,2.70
2019-01-13T08:40:22.005Z,2.70
2019-01-13T08:42:51.821Z,2.70
2019-01-13T08:45:21.420Z,2.70
2019-01-13T08:47:50.587Z,2.70
2019-01-13T08:50:25.491Z,2.70
2019-01-13T08:52:55.091Z,2.70
2019-01-13T08:55:26.582Z,2.70
2019-01-13T08:57:55.773Z,2.80
2019-01-13T09:00:30.591Z,2.80
2019-01-13T09:02:59.858Z,2.80
2019-01-13T09:05:29.210Z,2.90
2019-01-13T09:07:58.479Z,2.90
2019-01-13T09:10:27.618Z,2.90
2019-01-13T09:12:57.163Z,2.90
2019-01-13T09:15:27.114Z,3.00
2019-01-13T09:17:56.338Z,3.00
2019-01-13T09:20:27.803Z,3.00
2019-01-13T09:22:58.503Z,3.00
2019-01-13T09:25:28.056Z,3.10
2019-01-13T09:27:57.247Z,3.10
2019-01-13T09:30:30.404Z,3.00
2019-01-13T09:32:59.562Z,3.00
2019-01-13T09:35:29.363Z,3.10
2019-01-13T09:37:58.573Z,3.10
2019-01-13T09:40:30.563Z,3.10
2019-01-13T09:43:01.129Z,3.10
2019-01-13T09:45:30.613Z,3.10
2019-01-13T09:47:59.914Z,3.10
2019-01-13T09:50:29.176Z,3.20
2019-01-13T09:52:58.383Z,3.20
2019-01-13T09:55:27.597Z,3.20
2019-01-13T09:57:56.827Z,3.20
2019-01-13T10:00:34.182Z,3.20
2019-01-13T10:03:03.387Z,3.20
2019-01-13T10:05:32.545Z,3.30
2019-01-13T10:08:01.741Z,3.30
2019-01-13T10:10:30.971Z,3.30
2019-01-13T10:13:00.304Z,3.30
2019-01-13T10:15:29.489Z,3.40
2019-01-13T10:17:58.828Z,3.40
2019-01-13T10:20:27.978Z,3.50
2019-01-13T10:22:57.197Z,3.50
2019-01-13T10:25:26.548Z,3.50
2019-01-13T10:27:55.808Z,3.60
2019-01-13T10:30:27.249Z,3.60
2019-01-13T10:32:56.483Z,3.60
2019-01-13T10:35:25.713Z,3.60
2019-01-13T10:37:54.855Z,3.60
2019-01-13T10:40:25.788Z,3.50
2019-01-13T10:42:55.473Z,3.50
2019-01-13T10:45:24.684Z,3.50
2019-01-13T10:47:53.918Z,3.50
2019-01-13T10:50:28.283Z,3.50
2019-01-13T10:52:59.703Z,3.40
2019-01-13T10:55:29.010Z,3.50
2019-01-13T10:57:58.368Z,3.50
2019-01-13T11:00:30.015Z,3.50
2019-01-13T11:03:02.507Z,3.50
2019-01-13T11:05:30.372Z,3.40
2019-01-13T11:07:59.554Z,3.40
2019-01-13T11:10:28.794Z,3.40
2019-01-13T11:12:57.947Z,3.30
2019-01-13T11:15:27.127Z,3.30
2019-01-13T11:17:56.433Z,3.30
2019-01-13T11:20:34.320Z,3.30
2019-01-13T11:23:04.967Z,3.40
2019-01-13T11:25:34.241Z,3.40
2019-01-13T11:28:03.475Z,3.40
2019-01-13T11:30:32.648Z,3.40
2019-01-13T11:33:09.135Z,3.30
2019-01-13T11:35:32.877Z,3.30
2019-01-13T11:38:02.187Z,3.30
2019-01-13T11:40:31.467Z,3.40
2019-01-13T11:43:00.836Z,3.30
2019-01-13T11:45:30.020Z,3.30
2019-01-13T11:47:59.472Z,3.30
2019-01-13T11:50:28.835Z,3.30
2019-01-13T11:52:58.690Z,3.20
2019-01-13T11:55:27.942Z,3.20
2019-01-13T11:57:57.148Z,3.20
2019-01-13T12:00:38.302Z,3.20
2019-01-13T12:03:07.561Z,3.20
2019-01-13T12:05:36.716Z,3.20
2019-01-13T12:08:06.887Z,3.10
2019-01-13T12:10:36.126Z,3.10
2019-01-13T12:13:05.652Z,3.10
2019-01-13T12:15:34.790Z,3.00
2019-01-13T12:18:04.093Z,3.00
2019-01-13T12:20:33.364Z,3.00
2019-01-13T12:23:02.540Z,3.00
2019-01-13T12:25:31.772Z,2.90
2019-01-13T12:28:01.012Z,2.90
2019-01-13T12:30:31.694Z,2.90
2019-01-13T12:33:01.460Z,2.80
2019-01-13T12:35:30.745Z,2.80
2019-01-13T12:38:00.078Z,2.80
2019-01-13T12:40:31.224Z,2.80
2019-01-13T12:43:00.620Z,2.70
2019-01-13T12:45:29.887Z,2.70
2019-01-13T12:47:59.075Z,2.70
2019-01-13T12:50:29.953Z,2.70
2019-01-13T12:52:59.653Z,2.60
2019-01-13T12:55:28.916Z,2.50
2019-01-13T12:57:58.106Z,2.50
2019-01-13T13:00:27.383Z,2.40
2019-01-13T13:02:57.560Z,2.40
2019-01-13T13:05:27.116Z,2.40
2019-01-13T13:07:56.318Z,2.30
2019-01-13T13:10:31.515Z,2.30
2019-01-13T13:13:00.825Z,2.30
2019-01-13T13:15:29.999Z,2.30
2019-01-13T13:17:59.239Z,2.30
2019-01-13T13:20:28.727Z,2.20
2019-01-13T13:22:57.961Z,2.20
2019-01-13T13:25:31.893Z,2.20
2019-01-13T13:27:58.125Z,2.10
2019-01-13T13:30:27.433Z,2.10
2019-01-13T13:32:56.907Z,2.10
2019-01-13T13:35:26.169Z,2.10
2019-01-13T13:37:55.335Z,2.10
2019-01-13T13:40:25.041Z,2.10
2019-01-13T13:42:54.312Z,2.10
2019-01-13T13:45:23.580Z,2.10
2019-01-13T13:47:52.753Z,2.10
2019-01-13T13:50:24.306Z,2.20
2019-01-13T13:52:53.924Z,2.20
2019-01-13T13:55:23.496Z,2.20
2019-01-13T13:57:53.023Z,2.20
2019-01-13T14:00:24.491Z,2.20
2019-01-13T14:02:53.858Z,2.10
2019-01-13T14:05:23.352Z,2.10
2019-01-13T14:07:52.602Z,2.10
2019-01-13T14:10:24.441Z,2.00
2019-01-13T14:12:53.621Z,2.00
2019-01-13T14:15:22.785Z,2.00
2019-01-13T14:17:52.134Z,2.00
2019-01-13T14:20:21.505Z,1.90
2019-01-13T14:22:50.787Z,1.90
2019-01-13T14:25:20.043Z,1.90
2019-01-13T14:27:49.356Z,1.90
2019-01-13T14:30:23.685Z,1.90
2019-01-13T14:32:53.105Z,1.90
2019-01-13T14:35:22.496Z,1.90
2019-01-13T14:37:51.757Z,1.90
2019-01-13T14:40:22.659Z,2.00
2019-01-13T14:42:51.868Z,1.90
2019-01-13T14:45:26.077Z,1.90
2019-01-13T14:47:55.510Z,1.90
2019-01-13T14:50:32.697Z,2.00
2019-01-13T14:53:02.316Z,2.00
2019-01-13T14:55:31.510Z,2.00
2019-01-13T14:58:00.711Z,2.10
2019-01-13T15:00:33.289Z,2.10
2019-01-13T15:03:03.101Z,2.20
2019-01-13T15:05:32.335Z,2.20
2019-01-13T15:08:01.607Z,2.20
2019-01-13T15:10:30.828Z,2.20
2019-01-13T15:12:59.977Z,2.30
2019-01-13T15:15:29.228Z,2.30
2019-01-13T15:17:58.457Z,2.30
2019-01-13T15:20:27.807Z,2.30
2019-01-13T15:22:57.088Z,2.40
2019-01-13T15:25:29.231Z,2.40
2019-01-13T15:27:58.537Z,2.40
2019-01-13T15:30:38.091Z,2.40
2019-01-13T15:33:08.907Z,2.40
2019-01-13T15:35:38.068Z,2.40
2019-01-13T15:38:08.275Z,2.40
2019-01-13T15:40:37.665Z,2.50
2019-01-13T15:43:06.986Z,2.50
2019-01-13T15:45:37.517Z,2.50
2019-01-13T15:48:07.866Z,2.50
2019-01-13T15:50:37.178Z,2.50
2019-01-13T15:53:06.456Z,2.60
2019-01-13T15:55:35.725Z,2.60
2019-01-13T15:58:05.341Z,2.50
2019-01-13T16:00:36.307Z,2.60
2019-01-13T16:03:07.958Z,2.50
2019-01-13T16:05:40.680Z,2.60
2019-01-13T16:08:11.210Z,2.60
2019-01-13T16:10:40.513Z,2.60
2019-01-13T16:13:09.792Z,2.60
2019-01-13T16:15:39.696Z,2.60
2019-01-13T16:18:09.798Z,2.60
2019-01-13T16:20:40.754Z,2.60
2019-01-13T16:23:10.057Z,2.60
2019-01-13T16:25:39.309Z,2.60
2019-01-13T16:28:08.568Z,2.60
2019-01-13T16:30:39.036Z,2.70
2019-01-13T16:33:08.317Z,2.70
2019-01-13T16:35:37.514Z,2.70
2019-01-13T16:38:06.951Z,2.70
2019-01-13T16:40:36.529Z,2.80
2019-01-13T16:43:06.106Z,2.80
2019-01-13T16:45:35.293Z,2.80
2019-01-13T16:48:05.118Z,2.80
2019-01-13T16:50:34.305Z,2.80
2019-01-13T16:53:06.028Z,2.90
2019-01-13T16:55:36.975Z,2.90
2019-01-13T16:58:06.251Z,2.90
2019-01-13T17:00:35.476Z,2.90
2019-01-13T17:03:04.846Z,3.00
2019-01-13T17:05:34.097Z,3.00
2019-01-13T17:08:03.359Z,3.00
2019-01-13T17:10:32.617Z,3.10
2019-01-13T17:13:01.903Z,3.10
2019-01-13T17:15:33.149Z,3.10
2019-01-13T17:18:02.399Z,3.20
2019-01-13T17:20:31.714Z,3.20
2019-01-13T17:23:00.980Z,3.30
2019-01-13T17:25:30.349Z,3.30
2019-01-13T17:27:59.547Z,3.40
2019-01-13T17:30:30.976Z,3.40
2019-01-13T17:33:00.198Z,3.40
2019-01-13T17:35:29.634Z,3.50
2019-01-13T17:37:58.946Z,3.50
2019-01-13T17:40:28.187Z,3.50
2019-01-13T17:42:57.462Z,3.50
2019-01-13T17:45:31.584Z,3.50
2019-01-13T17:48:00.883Z,3.50
2019-01-13T17:50:33.409Z,3.50
2019-01-13T17:53:02.667Z,3.50
2019-01-13T17:55:32.219Z,3.50
2019-01-13T17:58:01.567Z,3.60
2019-01-13T18:00:33.856Z,3.60
2019-01-13T18:03:03.703Z,3.60
2019-01-13T18:05:32.958Z,3.60
2019-01-13T18:08:11.322Z,3.60
2019-01-13T18:10:40.597Z,3.60
2019-01-13T18:13:09.863Z,3.60
2019-01-13T18:15:39.160Z,3.60
2019-01-13T18:18:08.421Z,3.60
2019-01-13T18:20:37.608Z,3.60
2019-01-13T18:23:06.968Z,3.60
2019-01-13T18:25:36.263Z,3.60
2019-01-13T18:28:05.684Z,3.60
2019-01-13T18:30:34.853Z,3.70
2019-01-13T18:33:04.067Z,3.70
2019-01-13T18:35:33.413Z,3.70
2019-01-13T18:38:02.730Z,3.60
2019-01-13T18:40:32.028Z,3.70
2019-01-13T18:43:01.324Z,3.70
2019-01-13T18:45:30.672Z,3.70
2019-01-13T18:47:59.979Z,3.70
2019-01-13T18:50:29.314Z,3.70
2019-01-13T18:53:02.245Z,3.70
2019-01-13T18:55:31.622Z,3.70
2019-01-13T18:58:00.959Z,3.70
2019-01-13T19:00:30.317Z,3.70
2019-01-13T19:02:59.642Z,3.70
2019-01-13T19:05:28.815Z,3.70
2019-01-13T19:07:58.126Z,3.70
2019-01-13T19:11:07.384Z,3.70
2019-01-13T19:14:11.376Z,3.70
2019-01-13T19:17:06.036Z,3.70
2019-01-13T19:19:44.963Z,3.80
2019-01-13T19:22:14.268Z,3.80
2019-01-13T19:24:43.576Z,3.80
2019-01-13T19:27:12.851Z,3.80
2019-01-13T19:29:42.210Z,3.80
2019-01-13T19:32:11.395Z,3.80
2019-01-13T19:34:40.719Z,3.90
2019-01-13T19:37:10.083Z,3.90
2019-01-13T19:39:39.336Z,4.00
2019-01-13T19:42:08.659Z,3.90
2019-01-13T19:44:37.926Z,4.00
2019-01-13T19:47:07.356Z,4.00
2019-01-13T19:49:36.675Z,4.10
2019-01-13T19:52:05.948Z,4.10
2019-01-13T19:54:35.295Z,4.10
2019-01-13T19:57:04.603Z,4.10
2019-01-13T19:59:33.924Z,4.10
2019-01-13T20:02:03.247Z,4.20
2019-01-13T20:04:32.645Z,4.20
2019-01-13T20:07:01.975Z,4.20
2019-01-13T20:09:31.308Z,4.20
2019-01-13T20:12:00.650Z,4.30
2019-01-13T20:14:29.949Z,4.30
2019-01-13T20:16:59.223Z,4.30
2019-01-13T20:19:28.421Z,4.30
2019-01-13T20:21:57.765Z,4.40
2019-01-13T20:24:27.080Z,4.40
2019-01-13T20:26:56.413Z,4.40
2019-01-13T20:29:25.743Z,4.40
2019-01-13T20:31:55.073Z,4.40
2019-01-13T20:34:24.354Z,4.40
2019-01-13T20:36:53.726Z,4.50
2019-01-13T20:39:23.101Z,4.50
2019-01-13T20:41:52.344Z,4.50
2019-01-13T20:44:21.602Z,4.50
2019-01-13T20:46:50.889Z,4.50
2019-01-13T20:49:20.173Z,4.50
2019-01-13T20:51:49.475Z,4.50
2019-01-13T20:54:18.817Z,4.50
2019-01-13T20:56:49.340Z,4.50
2019-01-13T20:59:18.678Z,4.50
2019-01-13T21:01:47.930Z,4.50
2019-01-13T21:04:17.327Z,4.50
2019-01-13T21:06:46.629Z,4.50
2019-01-13T21:09:15.942Z,4.50
2019-01-13T21:11:45.276Z,4.60
2019-01-13T21:14:14.539Z,4.50
2019-01-13T21:16:43.803Z,4.50
2019-01-13T21:19:13.116Z,4.50
2019-01-13T21:21:42.331Z,4.50
2019-01-13T21:24:11.634Z,4.50
2019-01-13T21:26:40.886Z,4.60
2019-01-13T21:29:10.157Z,4.60
2019-01-13T21:31:39.396Z,4.60
2019-01-13T21:34:08.691Z,4.60
2019-01-13T21:36:37.961Z,4.60
2019-01-13T21:39:08.981Z,4.60
2019-01-13T21:41:38.304Z,4.70
2019-01-13T21:44:07.629Z,4.70
2019-01-13T21:46:36.946Z,4.70
2019-01-13T21:49:06.249Z,4.80
2019-01-13T21:51:35.536Z,4.90
2019-01-13T21:54:10.847Z,4.90
2019-01-13T21:56:35.929Z,5.00
2019-01-13T21:59:05.302Z,5.00
2019-01-13T22:01:35.586Z,5.00
2019-01-13T22:04:05.004Z,4.90
2019-01-13T22:06:34.254Z,4.90
2019-01-13T22:09:06.565Z,4.90
2019-01-13T22:11:35.927Z,5.00
2019-01-13T22:14:05.258Z,5.00
2019-01-13T22:16:34.479Z,5.00
2019-01-13T22:19:03.922Z,5.00
2019-01-13T22:21:33.163Z,4.90
2019-01-13T22:24:02.591Z,4.90
2019-01-13T22:26:31.924Z,4.90
2019-01-13T22:29:01.238Z,4.90
2019-01-13T22:31:30.498Z,4.90
2019-01-13T22:33:59.826Z,5.00
2019-01-13T22:36:29.111Z,5.10
2019-01-13T22:38:58.510Z,5.10
2019-01-13T22:41:27.853Z,5.20
2019-01-13T22:43:57.078Z,5.20
2019-01-13T22:46:26.237Z,5.20
2019-01-13T22:48:55.546Z,5.20
2019-01-13T22:51:24.828Z,5.20
2019-01-13T22:53:54.045Z,5.30
2019-01-13T22:56:23.346Z,5.30
2019-01-13T22:58:52.596Z,5.30
2019-01-13T23:01:31.243Z,5.20
2019-01-13T23:04:03.836Z,5.20
2019-01-13T23:06:33.069Z,5.20
2019-01-13T23:09:02.303Z,5.20
2019-01-13T23:11:31.516Z,5.20
2019-01-13T23:14:00.756Z,5.20
2019-01-13T23:16:30.032Z,5.30
2019-01-13T23:18:59.337Z,5.40
2019-01-13T23:21:28.606Z,5.40
2019-01-13T23:23:57.845Z,5.40
2019-01-13T23:26:27.106Z,5.50
2019-01-13T23:28:56.495Z,5.40
2019-01-13T23:31:25.751Z,5.40
2019-01-13T23:33:54.978Z,5.40
2019-01-13T23:36:24.196Z,5.40
2019-01-13T23:38:53.417Z,5.40
2019-01-13T23:41:22.598Z,5.30
2019-01-13T23:43:51.879Z,5.30
2019-01-13T23:46:21.195Z,5.20
2019-01-13T23:48:50.483Z,5.20
2019-01-13T23:51:19.905Z,5.20
2019-01-13T23:53:49.234Z,5.20
2019-01-13T23:56:18.426Z,5.20
2019-01-13T23:58:47.688Z,5.10
